Time;durP1;ratioP1;P1;durP2;ratioP2;P2;SDS_P1;SDS_P2;PMS_P1;PMS_P2;Temp;Humidity;BMP_temperature;BMP_pressure;BME280_temperature;BME280_humidity;BME280_pressure;Samples;Min_cycle;Max_cycle;Signal;HPM_P1;HPM_P2
2022/09/19 00:00:40;;;;;;;70.90;50.15;;;20.20;60.00;;;;;;4962390;28;89961;-54
2022/09/19 00:03:06;;;;;;;68.35;50.03;;;20.30;60.20;;;;;;4964923;28;91359;-56
2022/09/19 00:05:32;;;;;;;69.00;49.67;;;20.20;60.00;;;;;;4966326;28;90820;-56
2022/09/19 00:07:58;;;;;;;68.68;49.70;;;20.20;60.30;;;;;;4965567;28;95784;-54
2022/09/19 00:10:26;;;;;;;69.40;50.05;;;20.20;60.10;;;;;;4968047;28;92273;-58
2022/09/19 00:12:52;;;;;;;70.10;49.75;;;20.20;60.00;;;;;;4975070;28;90353;-59
2022/09/19 00:15:18;;;;;;;68.95;49.78;;;20.30;60.00;;;;;;4973290;28;95048;-57
2022/09/19 00:17:44;;;;;;;69.55;49.92;;;20.20;60.00;;;;;;4968535;28;90355;-58
2022/09/19 00:20:09;;;;;;;70.60;49.83;;;20.20;60.10;;;;;;4963796;28;95522;-57
2022/09/19 00:22:35;;;;;;;70.45;49.75;;;20.10;60.30;;;;;;4967644;28;90205;-57
2022/09/19 00:25:01;;;;;;;71.45;49.85;;;20.20;60.00;;;;;;4968384;28;90578;-57
2022/09/19 00:27:28;;;;;;;68.28;49.50;;;20.20;60.00;;;;;;4961864;28;91128;-56
2022/09/19 00:29:54;;;;;;;68.88;49.65;;;20.20;60.00;;;;;;4965532;28;95305;-56
2022/09/19 00:32:22;;;;;;;69.10;49.67;;;20.10;60.20;;;;;;4974198;28;91004;-55
2022/09/19 00:34:49;;;;;;;68.32;49.55;;;20.20;60.00;;;;;;4966262;28;92534;-55
2022/09/19 00:37:18;;;;;;;69.07;50.13;;;20.20;59.80;;;;;;4966646;28;89770;-55
2022/09/19 00:39:44;;;;;;;70.47;49.92;;;20.20;60.00;;;;;;4969336;28;89853;-59
2022/09/19 00:42:18;;;;;;;67.82;49.42;;;20.20;60.00;;;;;;4969077;28;93453;-55
2022/09/19 00:44:45;;;;;;;69.72;49.92;;;20.10;60.00;;;;;;4960670;28;89957;-56
2022/09/19 00:47:15;;;;;;;69.75;49.90;;;20.20;60.10;;;;;;4968329;28;91544;-56
2022/09/19 00:49:44;;;;;;;68.30;49.33;;;20.10;60.00;;;;;;4966068;28;90078;-59
2022/09/19 00:52:18;;;;;;;68.20;49.83;;;20.20;60.00;;;;;;4975310;28;90027;-56
2022/09/19 00:54:46;;;;;;;68.72;49.55;;;20.20;59.90;;;;;;4963414;28;90320;-56
2022/09/19 00:57:14;;;;;;;68.70;49.95;;;20.10;59.90;;;;;;4960816;28;90908;-57
2022/09/19 00:59:43;;;;;;;70.10;49.88;;;20.10;60.10;;;;;;4968296;28;89605;-57
2022/09/19 01:02:10;;;;;;;68.05;49.63;;;20.10;60.10;;;;;;4967534;28;90850;-57
2022/09/19 01:04:36;;;;;;;68.80;49.45;;;20.20;59.80;;;;;;4968297;28;89773;-56
2022/09/19 01:07:28;;;;;;;69.35;49.85;;;20.10;60.00;;;;;;4971801;28;89735;-57
2022/09/19 01:10:17;;;;;;;69.43;49.75;;;20.00;60.00;;;;;;4970363;28;90286;-54
2022/09/19 01:12:51;;;;;;;68.15;49.35;;;20.10;60.00;;;;;;4970414;28;95299;-54
2022/09/19 01:15:51;;;;;;;67.55;49.50;;;20.00;60.10;;;;;;4964060;28;96542;-55
2022/09/19 01:18:21;;;;;;;68.53;49.55;;;20.00;60.10;;;;;;4966776;28;90914;-57
2022/09/19 01:20:52;;;;;;;68.53;49.45;;;20.00;60.00;;;;;;4961516;28;90189;-58
2022/09/19 01:23:40;;;;;;;69.20;49.78;;;20.00;60.10;;;;;;4964980;28;92120;-59
2022/09/19 01:26:09;;;;;;;68.10;49.53;;;20.00;60.00;;;;;;4972510;28;91697;-58
2022/09/19 01:28:41;;;;;;;69.28;49.80;;;20.00;59.90;;;;;;4962701;28;92219;-58
2022/09/19 01:31:19;;;;;;;69.55;49.60;;;20.00;60.10;;;;;;4967576;28;92134;-56
2022/09/19 01:34:09;;;;;;;67.47;49.42;;;20.00;60.00;;;;;;4967066;28;92825;-57
2022/09/19 01:36:46;;;;;;;67.10;49.45;;;20.00;59.90;;;;;;4965609;28;92400;-56
2022/09/19 01:39:17;;;;;;;69.32;49.83;;;20.00;59.90;;;;;;4963109;28;90261;-58
2022/09/19 01:41:50;;;;;;;70.10;49.95;;;19.90;60.00;;;;;;4968511;28;89258;-54
2022/09/19 01:44:19;;;;;;;69.00;49.42;;;20.00;60.00;;;;;;4975332;28;90531;-55
2022/09/19 01:46:50;;;;;;;68.75;49.47;;;20.00;59.90;;;;;;4963171;28;90110;-57
2022/09/19 01:49:37;;;;;;;68.35;49.85;;;19.90;60.10;;;;;;4959409;28;90720;-54
2022/09/19 01:52:18;;;;;;;67.60;49.42;;;19.90;60.00;;;;;;4967198;28;90363;-56
2022/09/19 01:54:48;;;;;;;67.80;49.75;;;20.00;59.80;;;;;;4958820;28;91379;-57
2022/09/19 01:57:33;;;;;;;68.65;49.38;;;20.00;59.80;;;;;;4960387;28;90568;-57
2022/09/19 02:00:23;;;;;;;67.75;49.65;;;20.00;59.80;;;;;;4968927;28;92662;-54
2022/09/19 02:03:04;;;;;;;68.15;49.42;;;19.90;59.90;;;;;;4964784;28;90633;-55
2022/09/19 02:05:56;;;;;;;69.18;49.70;;;19.90;60.00;;;;;;4974953;28;91872;-57
2022/09/19 02:08:33;;;;;;;68.85;50.05;;;19.80;60.10;;;;;;4977017;28;89509;-56
2022/09/19 02:11:10;;;;;;;68.32;49.75;;;19.90;60.10;;;;;;4966216;28;89831;-54
2022/09/19 02:13:43;;;;;;;68.07;49.28;;;19.80;60.00;;;;;;4968547;28;89847;-57
2022/09/19 02:16:13;;;;;;;67.97;49.28;;;19.90;60.00;;;;;;4963500;28;93727;-55
2022/09/19 02:18:52;;;;;;;68.10;49.53;;;19.90;60.00;;;;;;4962371;28;91918;-57
2022/09/19 02:21:25;;;;;;;68.40;49.60;;;19.80;60.00;;;;;;4970778;28;89820;-59
2022/09/19 02:23:55;;;;;;;70.05;49.65;;;19.90;60.00;;;;;;4969399;28;90536;-57
2022/09/19 02:26:22;;;;;;;67.53;49.55;;;19.90;59.80;;;;;;4970089;28;90237;-59
2022/09/19 02:28:54;;;;;;;67.22;49.42;;;19.90;59.80;;;;;;4965916;28;89844;-58
2022/09/19 02:31:24;;;;;;;67.90;49.58;;;19.90;59.80;;;;;;4968479;28;90063;-57
2022/09/19 02:33:50;;;;;;;67.30;49.50;;;19.90;59.80;;;;;;4970305;28;89015;-57
2022/09/19 02:36:26;;;;;;;69.32;49.33;;;19.80;59.80;;;;;;4966625;28;90060;-59
2022/09/19 02:39:20;;;;;;;68.15;49.45;;;19.80;59.80;;;;;;4968856;28;90719;-55
2022/09/19 02:42:33;;;;;;;69.03;49.45;;;19.80;60.00;;;;;;4967557;28;91943;-58
2022/09/19 02:45:18;;;;;;;68.53;49.35;;;19.80;59.90;;;;;;4929340;28;90012;-54
2022/09/19 02:48:06;;;;;;;67.53;49.65;;;19.80;59.80;;;;;;4972967;28;92032;-57
2022/09/19 02:50:50;;;;;;;67.63;49.47;;;19.80;59.60;;;;;;4967528;28;90087;-56
2022/09/19 02:53:22;;;;;;;68.03;49.30;;;19.80;59.80;;;;;;4971095;28;89793;-56
2022/09/19 02:55:55;;;;;;;68.85;49.42;;;19.80;59.60;;;;;;4970043;28;92587;-56
2022/09/19 02:58:23;;;;;;;67.35;49.85;;;19.80;59.50;;;;;;4964411;28;90932;-57
2022/09/19 03:00:52;;;;;;;68.32;49.22;;;19.80;59.70;;;;;;4973921;28;89885;-55
2022/09/19 03:06:19;;;;;;;67.57;49.70;;;19.70;60.00;;;;;;4958287;28;90164;-57
2022/09/19 03:08:50;;;;;;;67.50;49.47;;;19.70;60.00;;;;;;4969935;28;92215;-54
2022/09/19 03:11:19;;;;;;;;;;;19.70;60.00;;;;;;4965698;28;91346;-56
2022/09/19 03:13:45;;;;;;;67.68;49.55;;;19.70;59.90;;;;;;4971460;28;89742;-55
2022/09/19 03:16:19;;;;;;;67.95;49.55;;;19.70;59.90;;;;;;4969388;28;91430;-56
2022/09/19 03:18:46;;;;;;;67.38;49.17;;;19.70;59.90;;;;;;4969238;28;95220;-56
2022/09/19 03:21:12;;;;;;;69.30;49.28;;;19.70;59.60;;;;;;4966725;28;90000;-58
2022/09/19 03:23:42;;;;;;;67.22;49.65;;;19.80;59.50;;;;;;4967740;28;90010;-55
2022/09/19 03:26:11;;;;;;;67.70;49.35;;;19.80;59.50;;;;;;4970912;28;90300;-55
2022/09/19 03:28:37;;;;;;;67.00;49.33;;;19.80;59.60;;;;;;4969256;28;90342;-55
2022/09/19 03:31:04;;;;;;;67.40;49.40;;;19.70;59.60;;;;;;4968983;28;89963;-57
2022/09/19 03:33:30;;;;;;;67.45;49.40;;;19.80;59.60;;;;;;4968997;28;91009;-56
2022/09/19 03:35:57;;;;;;;67.68;49.42;;;19.70;59.70;;;;;;4972834;28;90342;-56
2022/09/19 03:38:26;;;;;;;67.57;49.35;;;19.70;59.60;;;;;;4967810;28;91519;-56
2022/09/19 03:40:51;;;;;;;67.63;49.45;;;19.80;59.50;;;;;;4966331;28;92543;-55
2022/09/19 03:43:17;;;;;;;67.30;49.25;;;19.60;59.70;;;;;;4961493;28;90192;-56
2022/09/19 03:45:43;;;;;;;67.63;49.50;;;19.60;59.70;;;;;;4973174;28;91778;-58
2022/09/19 03:48:09;;;;;;;67.35;49.25;;;19.60;59.80;;;;;;4975243;28;89894;-53
2022/09/19 03:50:35;;;;;;;67.47;49.42;;;19.60;59.80;;;;;;4964667;28;94271;-57
2022/09/19 03:53:00;;;;;;;67.47;49.65;;;19.70;59.50;;;;;;4971811;28;90992;-59
2022/09/19 03:55:26;;;;;;;67.80;49.17;;;19.60;59.60;;;;;;4972678;28;89899;-66
2022/09/19 03:57:52;;;;;;;67.53;49.05;;;19.60;59.80;;;;;;4964681;28;91151;-65
2022/09/19 04:00:17;;;;;;;67.32;49.45;;;19.60;59.80;;;;;;4968200;28;89828;-65
2022/09/19 04:02:43;;;;;;;66.97;49.33;;;19.60;59.70;;;;;;4967544;28;94104;-66
2022/09/19 04:05:09;;;;;;;67.72;49.28;;;19.60;59.70;;;;;;4967825;28;89777;-65
2022/09/19 04:07:37;;;;;;;68.32;49.25;;;19.60;59.50;;;;;;4966261;28;89603;-64
2022/09/19 04:10:05;;;;;;;66.60;49.33;;;19.70;59.30;;;;;;4967174;28;98289;-64
2022/09/19 04:12:32;;;;;;;68.05;49.25;;;19.60;59.60;;;;;;4971241;28;89868;-64
2022/09/19 04:14:58;;;;;;;66.93;49.53;;;19.50;59.80;;;;;;4966288;28;89121;-65
2022/09/19 04:17:24;;;;;;;67.78;49.28;;;19.40;60.00;;;;;;4972949;28;94157;-64
2022/09/19 04:19:50;;;;;;;66.93;49.05;;;19.50;59.80;;;;;;4969535;28;89575;-64
2022/09/19 04:22:18;;;;;;;67.45;49.65;;;19.50;59.70;;;;;;4963199;28;92011;-64
2022/09/19 04:24:44;;;;;;;67.00;49.13;;;19.50;59.70;;;;;;4963826;28;91033;-64
2022/09/19 04:27:13;;;;;;;66.80;49.30;;;19.50;59.50;;;;;;4968455;28;89367;-61
2022/09/19 04:29:40;;;;;;;66.97;49.35;;;19.60;59.30;;;;;;4968417;28;90011;-64
2022/09/19 04:32:07;;;;;;;67.80;49.65;;;19.50;59.60;;;;;;4967919;28;90386;-64
2022/09/19 04:34:33;;;;;;;67.63;49.45;;;19.50;59.70;;;;;;4965300;28;90422;-64
2022/09/19 04:37:02;;;;;;;67.45;49.97;;;19.50;59.40;;;;;;4962725;28;90954;-61
2022/09/19 04:39:29;;;;;;;68.47;49.30;;;19.50;59.50;;;;;;4971713;28;88816;-63
2022/09/19 04:41:55;;;;;;;67.13;49.38;;;19.40;60.00;;;;;;4969211;28;90442;-64
2022/09/19 04:44:22;;;;;;;66.90;49.35;;;19.40;60.20;;;;;;4966326;28;89271;-64
2022/09/19 04:46:50;;;;;;;67.80;49.40;;;19.40;60.00;;;;;;4960345;28;91187;-61
2022/09/19 04:49:17;;;;;;;67.38;49.38;;;19.30;60.10;;;;;;4958617;28;90559;-64
2022/09/19 04:51:43;;;;;;;67.80;49.17;;;19.30;61.20;;;;;;4964284;28;89387;-63
2022/09/19 04:54:10;;;;;;;67.05;49.30;;;19.30;60.50;;;;;;4974489;28;91422;-64
2022/09/19 04:56:36;;;;;;;67.20;49.55;;;19.30;60.40;;;;;;4973443;28;90879;-64
2022/09/19 04:59:02;;;;;;;66.53;49.33;;;19.40;60.30;;;;;;4961124;28;90148;-64
2022/09/19 05:01:30;;;;;;;67.45;49.60;;;19.30;60.10;;;;;;4965863;28;89895;-63
2022/09/19 05:03:56;;;;;;;67.45;49.35;;;19.40;60.10;;;;;;4970700;28;88876;-64
2022/09/19 05:06:23;;;;;;;67.72;49.28;;;19.30;60.20;;;;;;4971470;28;90027;-64
2022/09/19 05:08:50;;;;;;;69.82;49.20;;;19.30;60.40;;;;;;4974353;28;91012;-63
2022/09/19 05:11:18;;;;;;;66.70;49.15;;;19.30;60.60;;;;;;4966729;28;90412;-64
2022/09/19 05:13:44;;;;;;;67.10;49.42;;;19.30;60.60;;;;;;4967938;28;89808;-65
2022/09/19 05:16:13;;;;;;;68.18;49.42;;;19.30;60.60;;;;;;4967729;28;91204;-63
2022/09/19 05:18:39;;;;;;;66.68;49.13;;;19.40;60.30;;;;;;4967151;28;90017;-64
2022/09/19 05:21:16;;;;;;;68.25;49.17;;;19.30;60.90;;;;;;4961769;28;97181;-64
2022/09/19 05:23:42;;;;;;;67.25;49.13;;;19.30;61.00;;;;;;4963604;28;91398;-65
2022/09/19 05:26:12;;;;;;;67.40;49.40;;;19.40;61.00;;;;;;4970054;28;89669;-65
2022/09/19 05:28:38;;;;;;;67.20;49.38;;;19.30;60.60;;;;;;4962147;28;89393;-64
2022/09/19 05:31:05;;;;;;;67.28;49.08;;;19.30;60.80;;;;;;4956477;28;90353;-65
2022/09/19 05:33:32;;;;;;;66.95;49.63;;;19.20;61.30;;;;;;4958354;28;89319;-65
2022/09/19 05:36:00;;;;;;;69.47;49.65;;;19.20;61.70;;;;;;4965467;28;90738;-64
2022/09/19 05:38:27;;;;;;;68.93;49.13;;;19.10;61.60;;;;;;4959179;28;92419;-63
2022/09/19 05:40:57;;;;;;;67.93;49.35;;;19.10;62.10;;;;;;4957941;28;89941;-62
2022/09/19 05:43:23;;;;;;;71.22;49.78;;;19.10;62.60;;;;;;4956026;28;97217;-59
2022/09/19 05:45:54;;;;;;;68.57;49.83;;;19.40;61.90;;;;;;4951305;28;90961;-59
2022/09/19 05:48:21;;;;;;;71.60;49.92;;;19.60;61.30;;;;;;4974000;28;89978;-60
2022/09/19 05:50:48;;;;;;;68.70;49.85;;;19.70;60.60;;;;;;4963088;28;89972;-60
2022/09/19 05:55:59;;;;;;;68.80;50.22;;;19.60;60.80;;;;;;4954514;28;90378;-57
2022/09/19 05:58:27;;;;;;;69.38;49.97;;;19.60;60.80;;;;;;4964873;28;92918;-58
2022/09/19 06:00:53;;;;;;;72.40;50.13;;;19.70;61.50;;;;;;4966522;28;90872;-61
2022/09/19 06:03:21;;;;;;;73.72;50.88;;;19.60;61.60;;;;;;4960888;28;92449;-61
2022/09/19 06:05:50;;;;;;;71.95;50.08;;;19.70;61.60;;;;;;4968814;28;90595;-62
2022/09/19 06:08:18;;;;;;;71.03;50.42;;;19.80;61.70;;;;;;4968582;28;91259;-63
2022/09/19 06:10:44;;;;;;;73.40;50.33;;;19.80;61.60;;;;;;4969260;28;92501;-65
2022/09/19 06:13:12;;;;;;;69.45;50.28;;;19.70;61.70;;;;;;4974260;28;93397;-63
2022/09/19 06:15:38;;;;;;;69.00;50.22;;;19.70;61.80;;;;;;4963315;28;90124;-58
2022/09/19 06:18:04;;;;;;;70.60;50.22;;;19.70;61.80;;;;;;4976471;28;92108;-60
2022/09/19 06:20:30;;;;;;;69.47;50.33;;;19.80;61.80;;;;;;4965710;28;90203;-51
2022/09/19 06:23:01;;;;;;;73.07;50.35;;;19.80;61.70;;;;;;4972256;28;90076;-50
2022/09/19 06:25:28;;;;;;;;;;;19.80;61.40;;;;;;4957705;28;92213;-53
2022/09/19 06:27:59;;;;;;;70.20;49.85;;;19.80;61.60;;;;;;4974794;28;89889;-58
2022/09/19 06:30:26;;;;;;;71.27;50.50;;;19.80;61.70;;;;;;4966242;28;90419;-50
2022/09/19 06:32:52;;;;;;;69.45;50.08;;;19.70;61.80;;;;;;4968571;28;91065;-56
2022/09/19 06:35:19;;;;;;;72.15;50.08;;;19.70;61.50;;;;;;4962585;28;89606;-51
2022/09/19 06:37:45;;;;;;;68.32;50.17;;;19.70;61.50;;;;;;4971717;28;90524;-56
2022/09/19 06:40:11;;;;;;;70.50;50.00;;;19.60;61.60;;;;;;4969361;28;92804;-55
2022/09/19 06:42:37;;;;;;;70.47;50.40;;;19.50;61.80;;;;;;4967763;28;92530;-53
2022/09/19 06:45:06;;;;;;;67.78;49.80;;;19.60;61.50;;;;;;4970991;28;90501;-51
2022/09/19 06:47:32;;;;;;;70.80;50.10;;;19.70;61.60;;;;;;4969370;28;90966;-53
2022/09/19 06:50:00;;;;;;;70.13;50.10;;;19.70;61.90;;;;;;4967979;28;90582;-54
2022/09/19 06:52:26;;;;;;;72.60;50.72;;;19.80;61.40;;;;;;4959959;28;90044;-54
2022/09/19 06:54:52;;;;;;;73.55;50.47;;;19.80;61.70;;;;;;4967974;28;90747;-51
2022/09/19 06:57:18;;;;;;;68.93;49.92;;;19.90;61.60;;;;;;4971608;28;89578;-50
2022/09/19 06:59:44;;;;;;;70.22;50.15;;;19.90;61.60;;;;;;4964964;28;91416;-48
2022/09/19 07:02:10;;;;;;;71.43;50.33;;;19.80;61.60;;;;;;4965606;28;90536;-49
2022/09/19 07:04:36;;;;;;;68.68;49.72;;;19.90;61.80;;;;;;4970313;28;91963;-53
2022/09/19 07:07:02;;;;;;;70.45;49.83;;;19.90;61.70;;;;;;4969637;28;90145;-52
2022/09/19 07:09:28;;;;;;;68.57;50.03;;;20.00;61.50;;;;;;4969018;28;90115;-49
2022/09/19 07:11:56;;;;;;;70.65;50.05;;;20.00;61.70;;;;;;4968702;28;89863;-55
2022/09/19 07:14:22;;;;;;;70.63;50.05;;;20.00;61.30;;;;;;4968476;28;92278;-56
2022/09/19 07:16:48;;;;;;;70.68;49.92;;;20.00;61.20;;;;;;4968971;28;90426;-54
2022/09/19 07:19:14;;;;;;;69.97;50.05;;;20.00;61.20;;;;;;4969318;28;90071;-55
2022/09/19 07:21:40;;;;;;;70.28;50.13;;;20.00;61.30;;;;;;4970218;28;92347;-50
2022/09/19 07:24:06;;;;;;;77.55;50.30;;;20.00;61.20;;;;;;4967912;28;90451;-55
2022/09/19 07:26:32;;;;;;;71.05;50.13;;;20.00;60.90;;;;;;4973443;28;89660;-52
2022/09/19 07:28:58;;;;;;;69.13;49.97;;;20.00;61.30;;;;;;4963439;28;89962;-54
2022/09/19 07:31:25;;;;;;;73.07;50.40;;;20.00;61.00;;;;;;4964157;28;89108;-53
2022/09/19 07:33:51;;;;;;;70.13;50.13;;;20.00;61.30;;;;;;4968419;28;89515;-53
2022/09/19 07:36:21;;;;;;;71.53;50.10;;;20.10;61.50;;;;;;4962013;28;91434;-58
2022/09/19 07:38:50;;;;;;;70.65;50.45;;;20.10;61.10;;;;;;4967523;28;92495;-58
2022/09/19 07:41:17;;;;;;;71.22;50.15;;;20.10;61.30;;;;;;4971291;28;89867;-57
2022/09/19 07:43:47;;;;;;;71.65;50.03;;;20.10;61.00;;;;;;4969017;28;90781;-57
2022/09/19 07:46:14;;;;;;;71.38;50.53;;;20.10;61.00;;;;;;4967854;28;89883;-58
2022/09/19 07:48:42;;;;;;;72.15;50.45;;;20.10;60.90;;;;;;4964943;28;90232;-60
2022/09/19 07:51:08;;;;;;;71.65;50.25;;;20.20;61.20;;;;;;4975500;28;90647;-52
2022/09/19 07:53:34;;;;;;;71.80;50.20;;;20.20;61.20;;;;;;4961926;28;92589;-54
2022/09/19 07:56:01;;;;;;;73.60;50.33;;;20.10;61.20;;;;;;4963924;28;90623;-54
2022/09/19 07:58:27;;;;;;;74.63;50.65;;;20.20;61.10;;;;;;4963725;28;91016;-58
2022/09/19 08:00:53;;;;;;;70.80;50.58;;;20.20;61.20;;;;;;4972322;28;90495;-49
2022/09/19 08:03:20;;;;;;;73.95;50.97;;;20.20;61.20;;;;;;4969374;28;91390;-52
2022/09/19 08:05:49;;;;;;;73.53;50.78;;;20.30;61.00;;;;;;4966600;28;90879;-50
2022/09/19 08:08:16;;;;;;;71.68;51.00;;;20.30;60.70;;;;;;4965880;28;89988;-54
2022/09/19 08:10:43;;;;;;;71.20;50.55;;;20.30;61.00;;;;;;4969717;28;91681;-56
2022/09/19 08:13:10;;;;;;;74.15;50.88;;;20.30;60.80;;;;;;4964514;28;90206;-54
2022/09/19 08:15:36;;;;;;;73.85;50.20;;;20.30;60.90;;;;;;4962962;28;89850;-55
2022/09/19 08:18:04;;;;;;;73.47;51.03;;;20.30;60.60;;;;;;4968250;28;92160;-59
2022/09/19 08:20:32;;;;;;;71.97;50.45;;;20.30;61.00;;;;;;4966503;28;89345;-60
2022/09/19 08:23:00;;;;;;;71.32;50.58;;;20.30;60.80;;;;;;4964629;28;90240;-56
2022/09/19 08:25:27;;;;;;;75.78;50.45;;;20.30;61.00;;;;;;4967245;28;93944;-55
2022/09/19 08:27:55;;;;;;;71.45;50.75;;;20.30;60.90;;;;;;4968893;28;90965;-59
2022/09/19 08:30:22;;;;;;;83.90;50.85;;;20.30;61.10;;;;;;4962212;28;95501;-52
2022/09/19 08:32:49;;;;;;;73.10;50.47;;;20.30;60.90;;;;;;4968920;28;89838;-50
2022/09/19 08:35:19;;;;;;;74.28;50.67;;;20.40;60.90;;;;;;4962002;28;90007;-50
2022/09/19 08:37:46;;;;;;;71.30;50.45;;;20.40;60.80;;;;;;4976682;28;89904;-52
2022/09/19 08:40:46;;;;;;;70.50;50.28;;;20.50;60.70;;;;;;4971410;28;89810;-52
2022/09/19 08:43:21;;;;;;;71.07;50.63;;;20.60;60.40;;;;;;4965107;28;90307;-54
2022/09/19 08:46:20;;;;;;;73.13;50.75;;;20.60;60.40;;;;;;4964462;28;91276;-53
2022/09/19 08:49:00;;;;;;;69.88;50.38;;;20.60;60.10;;;;;;4964903;28;94090;-53
2022/09/19 08:51:26;;;;;;;70.43;50.40;;;20.70;60.00;;;;;;4959963;28;89993;-51
2022/09/19 08:54:09;;;;;;;70.88;50.53;;;20.70;59.90;;;;;;4961116;28;94334;-53
2022/09/19 08:56:37;;;;;;;71.95;50.65;;;20.60;59.90;;;;;;4961951;28;91750;-58
2022/09/19 08:59:10;;;;;;;70.35;50.20;;;20.60;60.20;;;;;;4967626;28;91993;-59
2022/09/19 09:01:37;;;;;;;74.05;51.05;;;20.60;60.10;;;;;;4966045;28;90002;-52
2022/09/19 09:04:31;;;;;;;71.63;50.55;;;20.70;60.00;;;;;;4969433;28;90438;-51
2022/09/19 09:07:15;;;;;;;72.47;51.08;;;20.60;59.90;;;;;;4970428;28;90056;-58
2022/09/19 09:10:03;;;;;;;71.85;50.40;;;20.60;60.30;;;;;;4973846;28;90175;-56
2022/09/19 09:12:31;;;;;;;69.50;50.42;;;20.60;60.10;;;;;;4975013;28;89825;-52
2022/09/19 09:15:28;;;;;;;72.68;50.60;;;20.70;60.20;;;;;;4968691;28;95313;-48
2022/09/19 09:18:00;;;;;;;77.53;50.92;;;20.80;59.90;;;;;;4967090;28;89926;-51
2022/09/19 09:20:50;;;;;;;74.00;50.60;;;20.80;59.90;;;;;;4964245;28;92189;-53
2022/09/19 09:23:18;;;;;;;70.70;50.35;;;20.90;59.60;;;;;;4971049;28;92550;-57
2022/09/19 09:25:48;;;;;;;71.00;50.35;;;21.00;59.40;;;;;;4959672;28;89700;-54
2022/09/19 09:28:30;;;;;;;73.68;50.58;;;20.90;59.40;;;;;;4967096;28;92102;-54
2022/09/19 09:31:18;;;;;;;;;;;21.00;59.30;;;;;;4968298;28;91828;-59
2022/09/19 09:34:22;;;;;;;70.35;50.55;;;20.90;59.40;;;;;;4976221;28;92335;-57
2022/09/19 09:37:04;;;;;;;71.25;50.45;;;20.80;59.70;;;;;;4970939;28;90317;-60
2022/09/19 09:39:49;;;;;;;70.30;50.65;;;20.80;60.00;;;;;;4975027;28;90437;-59
2022/09/19 09:42:20;;;;;;;72.68;50.60;;;20.80;59.90;;;;;;4973931;28;90235;-60
2022/09/19 09:44:54;;;;;;;73.82;50.97;;;20.90;59.70;;;;;;4969281;28;90077;-51
2022/09/19 09:47:30;;;;;;;72.22;50.65;;;20.90;59.80;;;;;;4962031;28;95951;-57
2022/09/19 09:50:18;;;;;;;72.57;50.72;;;20.80;59.80;;;;;;4966176;28;96506;-56
2022/09/19 09:52:57;;;;;;;71.07;50.63;;;20.80;59.80;;;;;;4973758;28;89964;-59
2022/09/19 09:58:55;;;;;;;73.45;50.85;;;20.80;60.30;;;;;;4975365;28;90271;-60
2022/09/19 10:04:45;;;;;;;85.03;54.33;;;20.80;60.50;;;;;;4974346;28;89991;-58
2022/09/19 10:07:33;;;;;;;89.85;55.92;;;20.80;61.30;;;;;;4978732;28;90303;-56
2022/09/19 10:10:04;;;;;;;87.53;55.80;;;20.80;61.50;;;;;;4965481;28;91761;-56
2022/09/19 10:12:43;;;;;;;87.27;55.67;;;20.90;61.80;;;;;;4961705;28;90881;-56
2022/09/19 10:15:21;;;;;;;85.60;55.15;;;20.80;61.90;;;;;;4964328;28;92676;-58
2022/09/19 10:18:00;;;;;;;80.22;54.10;;;20.80;61.60;;;;;;4969050;28;91160;-53
2022/09/19 10:20:49;;;;;;;84.22;53.67;;;20.90;61.30;;;;;;4974059;28;89993;-53
2022/09/19 10:23:23;;;;;;;78.45;52.47;;;21.00;60.70;;;;;;4975261;28;90531;-50
2022/09/19 10:25:51;;;;;;;75.65;53.03;;;21.00;60.30;;;;;;4968495;28;91087;-59
2022/09/19 10:28:26;;;;;;;78.47;52.65;;;21.00;60.90;;;;;;4967651;28;90715;-59
2022/09/19 10:31:00;;;;;;;76.90;52.78;;;21.10;60.60;;;;;;4973741;28;90092;-58
2022/09/19 10:33:48;;;;;;;77.70;52.55;;;21.20;60.20;;;;;;4958318;28;92381;-58
2022/09/19 10:36:25;;;;;;;74.32;52.03;;;21.30;59.90;;;;;;4965378;28;98988;-59
2022/09/19 10:38:58;;;;;;;73.10;51.50;;;21.30;59.50;;;;;;4973184;28;90307;-59
2022/09/19 10:41:27;;;;;;;76.43;51.90;;;21.40;59.40;;;;;;4964712;28;91276;-58
2022/09/19 10:43:59;;;;;;;76.00;51.72;;;21.40;59.30;;;;;;4966172;28;90722;-53
2022/09/19 10:46:49;;;;;;;79.05;51.47;;;21.30;59.30;;;;;;4962878;28;90370;-52
2022/09/19 10:49:22;;;;;;;74.20;51.60;;;21.30;59.40;;;;;;4968902;28;89903;-53
2022/09/19 10:51:51;;;;;;;72.93;51.92;;;21.40;59.20;;;;;;4964823;28;90631;-52
2022/09/19 10:54:36;;;;;;;75.22;51.53;;;21.40;59.10;;;;;;4973595;28;90216;-52
2022/09/19 10:57:04;;;;;;;74.38;51.42;;;21.40;59.00;;;;;;4968815;28;89753;-59
2022/09/19 10:59:38;;;;;;;74.45;51.28;;;21.50;58.90;;;;;;4974197;28;90723;-54
2022/09/19 11:02:09;;;;;;;76.57;51.85;;;21.50;58.80;;;;;;4968289;28;91613;-53
2022/09/19 11:04:36;;;;;;;;;;;21.50;58.70;;;;;;4967076;28;90013;-54
2022/09/19 11:07:16;;;;;;;72.82;51.08;;;21.50;58.60;;;;;;4975487;28;91005;-58
2022/09/19 11:09:44;;;;;;;74.68;51.72;;;21.50;58.40;;;;;;4973430;28;90176;-58
2022/09/19 11:12:15;;;;;;;74.72;51.28;;;21.50;58.30;;;;;;4969498;28;93985;-57
2022/09/19 11:14:55;;;;;;;74.38;51.35;;;21.50;58.30;;;;;;4964919;28;91185;-59
2022/09/19 11:17:47;;;;;;;73.05;51.42;;;21.50;58.30;;;;;;4975170;28;89886;-55
2022/09/19 11:20:40;;;;;;;74.60;51.35;;;21.50;58.30;;;;;;4967327;28;91071;-54
2022/09/19 11:23:35;;;;;;;72.95;51.50;;;21.50;58.20;;;;;;4965180;28;90705;-58
2022/09/19 11:26:10;;;;;;;73.30;51.45;;;21.50;58.10;;;;;;4963775;28;89888;-58
2022/09/19 11:29:10;;;;;;;74.15;51.50;;;21.50;57.90;;;;;;4961604;28;92141;-53
2022/09/19 11:31:44;;;;;;;73.60;51.45;;;21.50;58.50;;;;;;4968172;28;89795;-49
2022/09/19 11:34:34;;;;;;;73.68;51.35;;;21.50;58.40;;;;;;4966197;28;90942;-49
2022/09/19 11:37:00;;;;;;;75.32;51.40;;;21.50;58.20;;;;;;4962371;28;96912;-51
2022/09/19 11:40:00;;;;;;;73.80;51.42;;;21.60;58.00;;;;;;4972966;28;90762;-54
2022/09/19 11:42:40;;;;;;;73.75;51.65;;;21.60;58.00;;;;;;4967190;28;89879;-56
2022/09/19 11:45:11;;;;;;;77.03;51.25;;;21.60;56.70;;;;;;4963418;28;93131;-54
2022/09/19 11:47:50;;;;;;;76.10;51.15;;;21.10;54.20;;;;;;4967839;28;90085;-55
2022/09/19 11:50:41;;;;;;;75.07;51.15;;;21.10;52.70;;;;;;4966101;28;90525;-56
2022/09/19 11:53:36;;;;;;;73.97;51.25;;;20.80;53.80;;;;;;4963468;28;89405;-54
2022/09/19 11:56:08;;;;;;;73.70;50.50;;;20.60;51.80;;;;;;4971645;28;90139;-55
2022/09/19 11:58:42;;;;;;;76.45;50.95;;;20.40;52.90;;;;;;4963728;28;89549;-54
2022/09/19 12:01:41;;;;;;;73.32;50.50;;;20.30;54.00;;;;;;4961840;28;93231;-56
2022/09/19 12:04:48;;;;;;;72.10;50.70;;;20.40;51.20;;;;;;4966836;28;90041;-55
2022/09/19 12:07:42;;;;;;;74.45;50.63;;;20.20;51.30;;;;;;4960894;28;94786;-57
2022/09/19 12:10:33;;;;;;;72.32;50.15;;;19.90;52.20;;;;;;4971295;28;91140;-58
2022/09/19 12:13:20;;;;;;;72.47;50.73;;;20.00;53.50;;;;;;4966063;28;90380;-56
2022/09/19 12:15:53;;;;;;;71.28;50.33;;;19.80;53.30;;;;;;4961622;28;91372;-57
2022/09/19 12:18:45;;;;;;;71.18;50.30;;;20.00;57.60;;;;;;4964549;28;91425;-53
2022/09/19 12:21:12;;;;;;;;;;;20.40;55.30;;;;;;4963108;28;89094;-51
2022/09/19 12:27:19;;;;;;;73.70;50.70;;;21.00;55.00;;;;;;4964868;28;91389;-54
2022/09/19 12:30:06;;;;;;;73.47;50.78;;;21.20;55.20;;;;;;4963707;28;92051;-55
2022/09/19 12:32:32;;;;;;;72.55;50.95;;;21.30;55.50;;;;;;4966384;28;90336;-57
2022/09/19 12:35:25;;;;;;;73.20;51.60;;;21.40;55.80;;;;;;4962935;28;89965;-57
2022/09/19 12:38:29;;;;;;;72.07;51.30;;;21.40;56.10;;;;;;4961036;28;94882;-58
2022/09/19 12:41:10;;;;;;;72.93;50.97;;;21.50;56.40;;;;;;4956711;28;93435;-56
2022/09/19 12:43:54;;;;;;;73.13;51.42;;;21.50;56.80;;;;;;4964108;28;90462;-58
2022/09/19 12:46:41;;;;;;;72.53;51.20;;;21.50;56.90;;;;;;4965674;28;90891;-57
2022/09/19 12:49:35;;;;;;;74.28;51.67;;;21.50;56.90;;;;;;4959301;28;90247;-57
2022/09/19 12:52:34;;;;;;;73.47;51.05;;;21.60;56.90;;;;;;4973539;28;90115;-58
2022/09/19 12:55:21;;;;;;;74.07;51.35;;;21.60;56.90;;;;;;4966639;28;92879;-57
2022/09/19 12:58:16;;;;;;;73.85;51.22;;;21.70;56.90;;;;;;4962811;28;91845;-56
2022/09/19 13:00:45;;;;;;;75.07;51.55;;;21.70;57.00;;;;;;4965079;28;90939;-57
2022/09/19 13:03:25;;;;;;;72.85;51.33;;;21.70;57.20;;;;;;4967488;28;90856;-50
2022/09/19 13:05:56;;;;;;;76.43;51.60;;;21.60;57.60;;;;;;4959185;28;94844;-51
2022/09/19 13:08:48;;;;;;;75.88;51.60;;;21.60;57.70;;;;;;4964207;28;90074;-50
2022/09/19 13:11:16;;;;;;;;;;;21.70;57.90;;;;;;4977596;28;90042;-57
2022/09/19 13:14:06;;;;;;;74.10;51.33;;;21.70;57.60;;;;;;4969305;28;91028;-59